createdAt,value
2019-05-02T00:01:04.409Z,95.50
2019-05-02T00:03:35.878Z,95.50
2019-05-02T00:06:07.575Z,95.50
2019-05-02T00:08:35.306Z,95.50
2019-05-02T00:11:05.128Z,95.50
2019-05-02T00:13:33.828Z,95.50
2019-05-02T00:16:02.408Z,95.50
2019-05-02T00:18:31.944Z,95.50
2019-05-02T00:21:03.177Z,95.50
2019-05-02T00:23:31.888Z,95.50
2019-05-02T00:26:00.344Z,95.50
2019-05-02T00:28:28.843Z,95.40
2019-05-02T00:30:57.297Z,95.40
2019-05-02T00:33:29.362Z,95.40
2019-05-02T00:35:55.996Z,95.40
2019-05-02T00:38:24.438Z,95.50
2019-05-02T00:40:57.341Z,95.50
2019-05-02T00:43:23.139Z,95.60
2019-05-02T00:45:55.028Z,95.60
2019-05-02T00:48:26.157Z,95.60
2019-05-02T00:50:54.668Z,95.60
2019-05-02T00:53:23.128Z,95.70
2019-05-02T00:55:51.646Z,95.50
2019-05-02T00:58:20.135Z,95.60
2019-05-02T01:00:56.537Z,95.60
2019-05-02T01:03:26.682Z,95.70
2019-05-02T01:05:55.208Z,95.60
2019-05-02T01:08:23.697Z,95.70
2019-05-02T01:10:56.731Z,95.70
2019-05-02T01:13:22.329Z,95.80
2019-05-02T01:15:50.809Z,95.70
2019-05-02T01:18:21.458Z,95.70
2019-05-02T01:20:49.984Z,95.70
2019-05-02T01:23:18.443Z,95.80
2019-05-02T01:25:47.421Z,95.90
2019-05-02T01:28:18.860Z,95.90
2019-05-02T01:30:48.358Z,95.70
2019-05-02T01:33:18.507Z,95.80
2019-05-02T01:35:51.284Z,95.90
2019-05-02T01:38:33.838Z,95.80
2019-05-02T01:41:02.391Z,95.70
2019-05-02T01:43:33.341Z,95.70
2019-05-02T01:46:01.800Z,95.60
2019-05-02T01:48:30.383Z,95.50
2019-05-02T01:50:58.906Z,95.50
2019-05-02T01:53:29.201Z,95.40
2019-05-02T01:55:59.298Z,95.40
2019-05-02T01:58:27.770Z,95.30
2019-05-02T02:00:56.300Z,95.30
2019-05-02T02:03:24.759Z,95.20
2019-05-02T02:05:53.275Z,95.10
2019-05-02T02:08:21.767Z,95.00
2019-05-02T02:10:55.647Z,95.10
2019-05-02T02:13:20.461Z,95.10
2019-05-02T02:15:48.992Z,94.90
2019-05-02T02:18:22.288Z,94.90
2019-05-02T02:20:50.680Z,95.10
2019-05-02T02:23:36.980Z,94.90
2019-05-02T02:26:12.164Z,95.00
2019-05-02T02:28:40.011Z,94.90
2019-05-02T02:31:08.500Z,94.80
2019-05-02T02:33:40.815Z,94.50
2019-05-02T02:36:07.138Z,94.40
2019-05-02T02:38:35.700Z,94.60
2019-05-02T02:41:06.368Z,94.70
2019-05-02T02:43:34.972Z,94.70
2019-05-02T02:46:21.208Z,94.70
2019-05-02T02:48:49.669Z,94.50
2019-05-02T02:51:23.555Z,94.50
2019-05-02T02:53:48.427Z,94.60
2019-05-02T02:56:16.962Z,94.40
2019-05-02T02:58:47.670Z,94.50
2019-05-02T03:01:27.590Z,94.60
2019-05-02T03:03:45.853Z,94.60
2019-05-02T03:06:14.380Z,94.40
2019-05-02T03:08:46.267Z,94.20
2019-05-02T03:11:22.770Z,94.20
2019-05-02T03:13:52.670Z,94.00
2019-05-02T03:16:30.702Z,94.00
2019-05-02T03:18:59.229Z,94.10
2019-05-02T03:21:27.741Z,94.10
2019-05-02T03:24:03.050Z,94.20
2019-05-02T03:26:27.122Z,94.20
2019-05-02T03:28:58.654Z,94.30
2019-05-02T03:31:30.638Z,94.30
2019-05-02T03:34:00.504Z,94.40
2019-05-02T03:36:31.352Z,94.40
2019-05-02T03:38:57.068Z,94.50
2019-05-02T03:41:25.771Z,94.50
2019-05-02T03:44:09.742Z,94.50
2019-05-02T03:46:24.618Z,94.20
2019-05-02T03:49:05.749Z,94.00
2019-05-02T03:51:25.234Z,93.70
2019-05-02T03:54:06.294Z,93.60
2019-05-02T03:56:23.755Z,93.60
2019-05-02T03:58:56.070Z,93.60
2019-05-02T04:01:23.278Z,93.80
2019-05-02T04:03:51.742Z,93.80
2019-05-02T04:06:21.654Z,93.80
2019-05-02T04:08:59.241Z,93.80
2019-05-02T04:11:23.310Z,93.70
2019-05-02T04:13:52.836Z,94.00
2019-05-02T04:16:22.402Z,93.80
2019-05-02T04:18:55.672Z,93.80
2019-05-02T04:21:24.229Z,93.90
2019-05-02T04:23:52.029Z,93.10
2019-05-02T04:26:21.101Z,92.90
2019-05-02T04:28:51.897Z,92.80
2019-05-02T04:31:24.679Z,92.70
2019-05-02T04:33:50.089Z,92.80
2019-05-02T04:36:18.546Z,92.50
2019-05-02T04:38:51.752Z,92.70
2019-05-02T04:41:28.271Z,92.70
2019-05-02T04:43:57.611Z,92.60
2019-05-02T04:46:25.841Z,92.50
2019-05-02T04:48:49.826Z,92.70
2019-05-02T04:51:20.359Z,92.30
2019-05-02T04:53:49.884Z,92.50
2019-05-02T04:56:18.518Z,92.50
2019-05-02T04:58:49.539Z,92.30
2019-05-02T05:01:17.647Z,92.50
2019-05-02T05:03:49.207Z,92.10
2019-05-02T05:06:18.906Z,92.10
2019-05-02T05:08:48.346Z,92.00
2019-05-02T05:11:20.730Z,91.90
2019-05-02T05:13:47.944Z,91.90
2019-05-02T05:16:18.536Z,92.00
2019-05-02T05:18:49.381Z,92.00
2019-05-02T05:21:17.941Z,92.00
2019-05-02T05:24:01.327Z,91.80
2019-05-02T05:26:29.297Z,91.80
2019-05-02T05:28:58.400Z,91.50
2019-05-02T05:31:29.165Z,91.70
2019-05-02T05:33:57.953Z,91.60
2019-05-02T05:36:32.663Z,91.40
2019-05-02T05:38:58.269Z,91.30
2019-05-02T05:41:27.778Z,91.20
2019-05-02T05:43:57.427Z,91.10
2019-05-02T05:46:28.016Z,91.10
2019-05-02T05:48:58.338Z,91.10
2019-05-02T05:51:27.674Z,91.10
2019-05-02T05:53:59.055Z,91.20
2019-05-02T05:56:27.896Z,91.20
2019-05-02T05:58:58.817Z,91.20
2019-05-02T06:01:34.445Z,91.20
2019-05-02T06:03:58.100Z,91.40
2019-05-02T06:06:27.420Z,91.40
2019-05-02T06:08:56.170Z,91.60
2019-05-02T06:11:24.688Z,91.50
2019-05-02T06:13:53.224Z,91.40
2019-05-02T06:16:21.750Z,91.50
2019-05-02T06:18:50.265Z,91.10
2019-05-02T06:21:18.762Z,91.00
2019-05-02T06:23:47.300Z,91.20
2019-05-02T06:26:16.017Z,91.20
2019-05-02T06:28:44.731Z,91.10
2019-05-02T06:31:13.260Z,91.20
2019-05-02T06:33:41.707Z,91.00
2019-05-02T06:36:10.197Z,91.10
2019-05-02T06:38:38.651Z,91.20
2019-05-02T06:41:07.237Z,91.10
2019-05-02T06:43:35.767Z,91.00
2019-05-02T06:46:15.647Z,91.10
2019-05-02T06:48:33.923Z,91.10
2019-05-02T06:51:02.387Z,91.00
2019-05-02T06:53:30.905Z,90.90
2019-05-02T06:55:59.432Z,91.00
2019-05-02T06:58:27.891Z,91.10
2019-05-02T07:00:58.755Z,91.40
2019-05-02T07:03:27.722Z,91.20
2019-05-02T07:05:58.730Z,91.30
2019-05-02T07:08:26.613Z,91.20
2019-05-02T07:10:56.054Z,91.20
2019-05-02T07:13:25.425Z,91.10
2019-05-02T07:16:16.157Z,91.20
2019-05-02T07:18:49.610Z,91.20
2019-05-02T07:21:23.211Z,91.30
2019-05-02T07:23:53.170Z,91.20
2019-05-02T07:26:21.068Z,91.30
2019-05-02T07:28:49.041Z,91.40
2019-05-02T07:31:17.500Z,91.40
2019-05-02T07:33:46.952Z,91.40
2019-05-02T07:36:15.449Z,91.40
2019-05-02T07:38:43.895Z,91.50
2019-05-02T07:41:12.484Z,91.40
2019-05-02T07:43:40.966Z,91.30
2019-05-02T07:46:09.495Z,91.30
2019-05-02T07:48:37.996Z,91.40
2019-05-02T07:51:06.461Z,91.50
2019-05-02T07:53:35.140Z,91.70
2019-05-02T07:56:03.667Z,91.80
2019-05-02T07:58:32.136Z,91.60
2019-05-02T08:01:00.682Z,91.70
2019-05-02T08:03:33.302Z,91.70
2019-05-02T08:05:59.958Z,91.90
2019-05-02T08:08:29.934Z,91.80
2019-05-02T08:11:01.694Z,92.10
2019-05-02T08:13:31.401Z,91.90
2019-05-02T08:15:59.329Z,92.00
2019-05-02T08:18:30.256Z,91.70
2019-05-02T08:20:57.494Z,92.00
2019-05-02T08:23:27.813Z,92.10
2019-05-02T08:26:16.303Z,92.10
2019-05-02T08:28:51.784Z,91.90
2019-05-02T08:31:18.848Z,92.20
2019-05-02T08:33:47.496Z,92.10
2019-05-02T08:36:16.017Z,92.00
2019-05-02T08:38:44.483Z,91.90
2019-05-02T08:41:12.946Z,91.80
2019-05-02T08:43:44.884Z,92.10
2019-05-02T08:46:14.419Z,91.80
2019-05-02T08:48:43.715Z,91.80
2019-05-02T08:51:12.079Z,91.90
2019-05-02T08:53:40.571Z,91.90
2019-05-02T08:56:09.062Z,91.80
2019-05-02T08:58:37.530Z,91.90
2019-05-02T09:01:09.236Z,91.80
2019-05-02T09:03:54.754Z,91.80
2019-05-02T09:06:06.624Z,91.80
2019-05-02T09:08:35.239Z,91.70
2019-05-02T09:11:03.697Z,91.70
2019-05-02T09:13:33.043Z,91.70
2019-05-02T09:16:05.256Z,91.60
2019-05-02T09:18:38.757Z,91.70
2019-05-02T09:21:02.157Z,91.60
2019-05-02T09:23:33.210Z,91.60
2019-05-02T09:26:02.574Z,91.50
2019-05-02T09:28:32.090Z,91.50
2019-05-02T09:31:02.933Z,91.60
2019-05-02T09:33:32.188Z,91.60
2019-05-02T09:36:02.395Z,91.50
2019-05-02T09:38:32.824Z,91.40
2019-05-02T09:41:15.368Z,91.40
2019-05-02T09:43:34.831Z,91.10
2019-05-02T09:46:02.540Z,91.20
2019-05-02T09:48:31.920Z,91.00
2019-05-02T09:51:04.487Z,91.20
2019-05-02T09:53:32.343Z,91.00
2019-05-02T09:56:02.206Z,90.90
2019-05-02T09:58:32.006Z,90.60
2019-05-02T10:01:02.307Z,90.80
2019-05-02T10:03:31.954Z,90.60
2019-05-02T10:06:02.896Z,90.50
2019-05-02T10:08:32.046Z,90.40
2019-05-02T10:11:02.871Z,90.50
2019-05-02T10:13:32.810Z,90.50
2019-05-02T10:16:02.074Z,90.00
2019-05-02T10:18:32.839Z,90.40
2019-05-02T10:21:02.820Z,90.10
2019-05-02T10:23:32.110Z,90.00
2019-05-02T10:26:02.688Z,90.00
2019-05-02T10:28:31.744Z,90.10
2019-05-02T10:31:02.101Z,89.90
2019-05-02T10:33:33.682Z,90.00
2019-05-02T10:36:02.536Z,90.20
2019-05-02T10:38:32.533Z,90.20
2019-05-02T10:41:04.092Z,90.30
2019-05-02T10:43:32.887Z,89.70
2019-05-02T10:46:06.205Z,90.10
2019-05-02T10:48:36.366Z,90.50
2019-05-02T10:51:09.212Z,89.90
2019-05-02T10:53:37.669Z,90.30
2019-05-02T10:56:06.270Z,90.10
2019-05-02T10:58:35.787Z,90.20
2019-05-02T11:01:05.849Z,90.20
2019-05-02T11:03:43.774Z,90.20
2019-05-02T11:06:09.258Z,90.10
2019-05-02T11:08:44.045Z,90.30
2019-05-02T11:11:08.514Z,89.70
2019-05-02T11:13:42.585Z,90.00
2019-05-02T11:16:24.667Z,90.10
2019-05-02T11:18:57.533Z,90.00
2019-05-02T11:21:25.999Z,89.80
2019-05-02T11:23:54.641Z,89.30
2019-05-02T11:26:25.113Z,89.60
2019-05-02T11:28:53.491Z,89.70
2019-05-02T11:31:22.361Z,89.50
2019-05-02T11:33:52.718Z,89.20
2019-05-02T11:36:22.327Z,89.80
2019-05-02T11:38:59.491Z,89.90
2019-05-02T11:41:22.419Z,90.10
2019-05-02T11:43:54.099Z,90.00
2019-05-02T11:46:22.117Z,89.80
2019-05-02T11:48:56.173Z,89.50
2019-05-02T11:51:22.694Z,90.00
2019-05-02T11:53:52.581Z,90.10
2019-05-02T11:56:22.221Z,89.90
2019-05-02T11:58:52.779Z,89.50
2019-05-02T12:01:34.983Z,89.60
2019-05-02T12:03:54.344Z,89.00
2019-05-02T12:06:23.052Z,88.20
2019-05-02T12:08:52.507Z,88.30
2019-05-02T12:11:22.872Z,88.30
2019-05-02T12:13:56.615Z,88.90
2019-05-02T12:16:22.971Z,88.30
2019-05-02T12:18:53.582Z,88.10
2019-05-02T12:21:22.875Z,88.00
2019-05-02T12:23:52.754Z,88.70
2019-05-02T12:26:22.209Z,88.80
2019-05-02T12:28:52.737Z,87.90
2019-05-02T12:31:27.032Z,87.60
2019-05-02T12:33:56.577Z,86.90
2019-05-02T12:36:25.120Z,86.50
2019-05-02T12:38:53.639Z,86.70
2019-05-02T12:41:24.998Z,86.30
2019-05-02T12:43:52.606Z,87.00
2019-05-02T12:46:22.207Z,87.00
2019-05-02T12:48:51.994Z,87.20
2019-05-02T12:51:22.535Z,87.00
2019-05-02T12:53:52.839Z,86.80
2019-05-02T12:56:22.921Z,85.80
2019-05-02T12:58:52.936Z,86.30
2019-05-02T13:01:21.955Z,86.30
2019-05-02T13:04:04.229Z,85.90
2019-05-02T13:06:32.936Z,86.40
2019-05-02T13:09:03.116Z,86.40
2019-05-02T13:11:36.729Z,86.60
2019-05-02T13:14:03.968Z,86.40
2019-05-02T13:16:33.485Z,86.80
2019-05-02T13:19:05.994Z,86.90
2019-05-02T13:21:41.851Z,87.60
2019-05-02T13:24:29.189Z,87.90
2019-05-02T13:26:59.270Z,88.40
2019-05-02T13:29:25.465Z,87.70
2019-05-02T13:31:55.700Z,87.90
2019-05-02T13:34:34.793Z,87.50
2019-05-02T13:37:05.172Z,87.50
2019-05-02T13:39:44.366Z,87.80
2019-05-02T13:42:13.109Z,86.90
2019-05-02T13:45:02.330Z,87.20
2019-05-02T13:47:30.110Z,87.10
2019-05-02T13:50:00.967Z,87.10
2019-05-02T13:52:28.775Z,87.10
2019-05-02T13:54:57.289Z,87.70
2019-05-02T13:57:25.747Z,86.60
2019-05-02T13:59:54.216Z,87.30
2019-05-02T14:02:37.690Z,87.30
2019-05-02T14:05:08.642Z,86.80
2019-05-02T14:07:37.170Z,87.70
2019-05-02T14:10:09.209Z,87.70
2019-05-02T14:12:54.606Z,87.20
2019-05-02T14:15:24.774Z,87.00
2019-05-02T14:17:53.326Z,86.50
2019-05-02T14:20:22.473Z,86.20
2019-05-02T14:22:52.676Z,85.60
2019-05-02T14:25:22.309Z,84.80
2019-05-02T14:27:53.810Z,84.40
2019-05-02T14:30:35.728Z,85.20
2019-05-02T14:32:52.647Z,85.40
2019-05-02T14:35:32.640Z,85.70
2019-05-02T14:38:13.724Z,85.90
2019-05-02T14:40:49.247Z,85.80
2019-05-02T14:43:38.135Z,86.00
2019-05-02T14:46:06.364Z,86.10
2019-05-02T14:48:45.255Z,86.50
2019-05-02T14:51:16.895Z,86.70
2019-05-02T14:53:43.067Z,86.90
2019-05-02T14:56:16.413Z,86.60
2019-05-02T14:58:45.040Z,86.90
2019-05-02T15:01:17.199Z,86.90
2019-05-02T15:03:44.001Z,86.90
2019-05-02T15:06:12.535Z,86.70
2019-05-02T15:08:44.082Z,87.10
2019-05-02T15:11:12.561Z,86.60
2019-05-02T15:13:43.530Z,87.20
2019-05-02T15:16:17.677Z,87.50
2019-05-02T15:18:42.001Z,87.30
2019-05-02T15:21:16.254Z,87.20
2019-05-02T15:23:42.441Z,87.20
2019-05-02T15:26:13.949Z,86.90
2019-05-02T15:28:42.176Z,86.10
2019-05-02T15:31:12.588Z,86.40
2019-05-02T15:33:42.748Z,86.50
2019-05-02T15:36:12.920Z,87.30
2019-05-02T15:38:42.931Z,87.30
2019-05-02T15:41:13.614Z,87.60
2019-05-02T15:43:44.480Z,87.30
2019-05-02T15:46:15.649Z,87.10
2019-05-02T15:48:42.333Z,87.70
2019-05-02T15:51:12.352Z,87.10
2019-05-02T15:53:49.738Z,86.90
2019-05-02T15:56:20.301Z,86.50
2019-05-02T15:58:45.964Z,86.10
2019-05-02T16:01:22.644Z,85.60
2019-05-02T16:03:55.393Z,86.20
2019-05-02T16:06:30.551Z,85.10
2019-05-02T16:08:54.229Z,85.30
2019-05-02T16:11:23.065Z,85.60
2019-05-02T16:13:55.681Z,85.50
2019-05-02T16:16:22.671Z,85.90
2019-05-02T16:18:52.606Z,85.30
2019-05-02T16:21:29.052Z,85.30
2019-05-02T16:24:14.888Z,85.40
2019-05-02T16:26:46.765Z,85.70
2019-05-02T16:29:19.552Z,86.20
2019-05-02T16:31:54.954Z,86.20
2019-05-02T16:34:22.680Z,85.80
2019-05-02T16:36:52.782Z,86.30
2019-05-02T16:39:21.930Z,86.50
2019-05-02T16:41:51.081Z,86.60
2019-05-02T16:44:22.334Z,86.70
2019-05-02T16:46:52.108Z,86.80
2019-05-02T16:49:22.730Z,87.30
2019-05-02T16:51:50.635Z,87.10
2019-05-02T16:54:19.091Z,86.90
2019-05-02T16:56:47.560Z,86.80
2019-05-02T16:59:16.957Z,87.10
2019-05-02T17:01:46.330Z,87.80
2019-05-02T17:04:14.809Z,87.50
2019-05-02T17:06:43.437Z,87.80
2019-05-02T17:09:28.787Z,88.00
2019-05-02T17:11:56.035Z,87.90
2019-05-02T17:14:24.538Z,87.80
2019-05-02T17:16:55.902Z,88.20
2019-05-02T17:19:26.165Z,88.70
2019-05-02T17:21:56.480Z,88.50
2019-05-02T17:24:26.198Z,88.50
2019-05-02T17:26:53.967Z,88.40
2019-05-02T17:29:22.803Z,88.60
2019-05-02T17:31:55.512Z,88.90
2019-05-02T17:34:29.393Z,88.70
2019-05-02T17:36:51.976Z,88.50
2019-05-02T17:39:22.290Z,88.70
2019-05-02T17:41:52.418Z,89.10
2019-05-02T17:44:22.685Z,88.60
2019-05-02T17:46:58.556Z,88.60
2019-05-02T17:49:23.867Z,88.80
2019-05-02T17:52:11.215Z,89.00
2019-05-02T17:54:39.925Z,88.90
2019-05-02T17:57:08.384Z,88.70
2019-05-02T17:59:37.739Z,88.30
2019-05-02T18:02:11.538Z,88.70
2019-05-02T18:04:35.976Z,88.90
2019-05-02T18:07:04.770Z,89.40
2019-05-02T18:09:35.011Z,90.00
2019-05-02T18:12:07.190Z,90.20
2019-05-02T18:14:33.173Z,90.40
2019-05-02T18:17:01.977Z,90.50
2019-05-02T18:19:31.637Z,90.70
2019-05-02T18:22:03.563Z,90.90
2019-05-02T18:24:30.507Z,91.10
2019-05-02T18:26:59.056Z,91.30
2019-05-02T18:29:27.592Z,91.30
2019-05-02T18:31:56.119Z,91.60
2019-05-02T18:34:25.365Z,91.50
2019-05-02T18:36:57.434Z,91.60
2019-05-02T18:39:24.674Z,91.80
2019-05-02T18:41:55.089Z,92.00
2019-05-02T18:44:22.741Z,92.00
2019-05-02T18:46:51.903Z,92.20
2019-05-02T18:49:21.928Z,92.30
2019-05-02T18:51:53.815Z,92.50
2019-05-02T18:54:21.687Z,92.60
2019-05-02T18:56:54.999Z,92.70
2019-05-02T18:59:22.504Z,92.90
2019-05-02T19:01:52.708Z,92.90
2019-05-02T19:04:22.122Z,92.90
2019-05-02T19:06:51.904Z,93.00
2019-05-02T19:09:22.842Z,93.00
2019-05-02T19:11:52.245Z,92.80
2019-05-02T19:14:22.253Z,92.90
2019-05-02T19:16:52.122Z,92.90
2019-05-02T19:19:22.522Z,92.90
2019-05-02T19:21:51.749Z,92.80
2019-05-02T19:24:20.365Z,92.70
2019-05-02T19:26:49.821Z,92.70
2019-05-02T19:29:24.039Z,93.00
2019-05-02T19:31:52.906Z,92.50
2019-05-02T19:34:25.287Z,92.30
2019-05-02T19:36:52.911Z,92.40
2019-05-02T19:39:24.057Z,92.40
2019-05-02T19:41:52.022Z,92.50
2019-05-02T19:44:28.642Z,92.40
2019-05-02T19:46:51.988Z,92.40
2019-05-02T19:49:22.439Z,92.40
2019-05-02T19:51:56.343Z,92.40
2019-05-02T19:54:21.870Z,92.20
2019-05-02T19:56:52.397Z,92.30
2019-05-02T19:59:24.735Z,92.40
2019-05-02T20:01:52.226Z,92.30
2019-05-02T20:04:22.235Z,92.60
2019-05-02T20:06:50.934Z,92.30
2019-05-02T20:09:19.393Z,92.30
2019-05-02T20:11:48.024Z,92.30
2019-05-02T20:14:16.602Z,92.20
2019-05-02T20:16:49.502Z,92.30
2019-05-02T20:19:23.085Z,92.20
2019-05-02T20:21:51.934Z,92.20
2019-05-02T20:24:20.043Z,92.20
2019-05-02T20:26:52.353Z,92.10
2019-05-02T20:29:19.505Z,92.20
2019-05-02T20:31:49.052Z,92.00
2019-05-02T20:34:17.762Z,92.00
2019-05-02T20:36:46.223Z,92.10
2019-05-02T20:39:14.684Z,92.00
2019-05-02T20:41:43.215Z,92.00
2019-05-02T20:44:12.154Z,91.90
2019-05-02T20:46:42.075Z,92.10
2019-05-02T20:49:12.651Z,91.70
2019-05-02T20:51:42.354Z,91.30
2019-05-02T20:54:12.572Z,91.40
2019-05-02T20:56:42.625Z,91.60
2019-05-02T20:59:12.794Z,91.80
2019-05-02T21:01:42.858Z,91.70
2019-05-02T21:04:12.106Z,91.90
2019-05-02T21:06:45.324Z,92.90
2019-05-02T21:09:15.530Z,93.30
2019-05-02T21:11:45.657Z,93.60
2019-05-02T21:14:14.116Z,94.20
2019-05-02T21:16:42.881Z,94.20
2019-05-02T21:19:12.376Z,94.40
2019-05-02T21:21:42.689Z,94.40
2019-05-02T21:24:11.442Z,94.90
2019-05-02T21:26:41.986Z,95.50
2019-05-02T21:29:11.997Z,96.30
2019-05-02T21:31:42.394Z,96.00
2019-05-02T21:34:11.734Z,96.50
2019-05-02T21:36:42.389Z,96.60
2019-05-02T21:39:12.094Z,97.00
2019-05-02T21:41:42.310Z,96.90
2019-05-02T21:44:12.961Z,96.80
2019-05-02T21:46:42.377Z,97.00
2019-05-02T21:49:12.088Z,96.70
2019-05-02T21:51:58.939Z,96.80
2019-05-02T21:54:41.133Z,96.70
2019-05-02T21:57:12.191Z,96.40
2019-05-02T21:59:42.124Z,96.50
2019-05-02T22:02:12.371Z,96.50
2019-05-02T22:04:42.323Z,96.40
2019-05-02T22:07:12.213Z,96.60
2019-05-02T22:09:41.673Z,96.50
2019-05-02T22:12:12.005Z,96.60
2019-05-02T22:14:39.895Z,95.90
2019-05-02T22:17:08.915Z,95.80
2019-05-02T22:19:37.398Z,96.00
2019-05-02T22:22:06.114Z,96.10
2019-05-02T22:24:34.727Z,96.30
2019-05-02T22:27:03.174Z,95.30
2019-05-02T22:29:32.403Z,95.60
2019-05-02T22:32:02.994Z,95.30
2019-05-02T22:34:32.687Z,95.60
2019-05-02T22:37:02.000Z,96.10
2019-05-02T22:39:34.915Z,96.00
2019-05-02T22:42:04.592Z,95.80
2019-05-02T22:44:33.434Z,95.10
2019-05-02T22:47:01.963Z,95.10
2019-05-02T22:49:31.867Z,95.40
2019-05-02T22:52:00.893Z,95.30
2019-05-02T22:54:33.339Z,95.20
2019-05-02T22:56:59.658Z,95.40
2019-05-02T22:59:28.758Z,94.90
2019-05-02T23:01:57.952Z,94.70
2019-05-02T23:04:26.463Z,93.70
2019-05-02T23:06:54.988Z,92.50
2019-05-02T23:09:23.522Z,91.20
2019-05-02T23:11:52.069Z,91.30
2019-05-02T23:14:22.046Z,91.20
2019-05-02T23:16:52.318Z,90.90
2019-05-02T23:19:22.918Z,90.80
2019-05-02T23:21:52.685Z,90.40
2019-05-02T23:24:35.973Z,90.60
2019-05-02T23:26:55.093Z,90.70
2019-05-02T23:29:23.540Z,90.80
2019-05-02T23:31:52.170Z,90.50
2019-05-02T23:34:23.331Z,88.70
2019-05-02T23:36:52.278Z,89.10
2019-05-02T23:39:20.981Z,90.00
2019-05-02T23:41:49.503Z,89.20
2019-05-02T23:44:17.997Z,89.90
2019-05-02T23:46:46.973Z,90.10
2019-05-02T23:49:15.481Z,89.20
2019-05-02T23:51:43.926Z,90.30
2019-05-02T23:54:12.794Z,88.30
2019-05-02T23:56:43.095Z,89.30
2019-05-02T23:59:12.028Z,90.00
